Time;durP1;ratioP1;P1;durP2;ratioP2;P2;SDS_P1;SDS_P2;PMS_P1;PMS_P2;Temp;Humidity;BMP_temperature;BMP_pressure;BME280_temperature;BME280_humidity;BME280_pressure;Samples;Min_cycle;Max_cycle;Signal;HPM_P1;HPM_P2
2023/12/17 00:00:48;;;;;;;;;;;10.20;99.90;;;;;;5012986;28;19921;-67
2023/12/17 00:03:16;;;;;;;;;;;10.20;99.90;;;;;;5021417;28;20367;-66
2023/12/17 00:05:41;;;;;;;;;;;10.20;99.90;;;;;;5033447;28;20083;-67
2023/12/17 00:08:07;;;;;;;;;;;10.20;99.90;;;;;;5037519;28;20295;-66
2023/12/17 00:10:32;;;;;;;;;;;10.30;99.90;;;;;;5032022;28;19917;-67
2023/12/17 00:12:58;;;;;;;;;;;10.30;99.90;;;;;;5035732;28;19921;-66
2023/12/17 00:15:23;;;;;;;;;;;10.20;99.90;;;;;;5024253;28;19917;-67
2023/12/17 00:17:49;;;;;;;;;;;10.20;99.90;;;;;;5020299;28;19928;-67
2023/12/17 00:20:14;;;;;;;;;;;10.20;99.90;;;;;;5019116;28;19939;-67
2023/12/17 00:22:40;;;;;;;;;;;10.20;99.90;;;;;;5019669;28;20001;-67
2023/12/17 00:25:08;;;;;;;;;;;10.20;99.90;;;;;;5023625;28;20259;-67
2023/12/17 00:27:34;;;;;;;;;;;10.20;99.90;;;;;;5020555;28;20571;-67
2023/12/17 00:29:59;;;;;;;;;;;10.20;99.90;;;;;;5018990;28;20187;-66
2023/12/17 00:32:27;;;;;;;;;;;10.20;99.90;;;;;;5020754;28;19921;-66
2023/12/17 00:34:52;;;;;;;;;;;10.20;99.90;;;;;;5020726;28;19920;-67
2023/12/17 00:37:18;;;;;;;;;;;10.20;99.90;;;;;;5020676;28;19921;-67
2023/12/17 00:39:46;;;;;;;;;;;10.20;99.90;;;;;;5019257;28;19920;-67
2023/12/17 00:42:11;;;;;;;;;;;10.20;99.90;;;;;;5020128;28;19921;-67
2023/12/17 00:44:39;;;;;;;;;;;10.20;99.90;;;;;;5022515;28;19924;-67
2023/12/17 00:47:07;;;;;;;;;;;10.30;99.90;;;;;;5001876;23;19945;-67
2023/12/17 00:49:32;;;;;;;;;;;10.30;99.90;;;;;;4934396;28;19922;-67
2023/12/17 00:52:00;;;;;;;;;;;10.30;99.90;;;;;;4938029;28;19923;-67
2023/12/17 00:54:26;;;;;;;;;;;10.20;99.90;;;;;;4935325;28;19922;-67
2023/12/17 00:56:51;;;;;;;;;;;10.30;99.90;;;;;;4934360;28;20282;-66
2023/12/17 00:59:16;;;;;;;;;;;10.20;99.90;;;;;;4932428;28;19922;-67
2023/12/17 01:01:44;;;;;;;;;;;10.20;99.90;;;;;;4939568;28;20539;-67
2023/12/17 01:04:09;;;;;;;;;;;10.20;99.90;;;;;;4940923;28;19938;-67
2023/12/17 01:06:35;;;;;;;;;;;10.20;99.90;;;;;;4941556;28;19922;-67
2023/12/17 01:09:00;;;;;;;;;;;10.20;99.90;;;;;;4941523;28;20024;-67
2023/12/17 01:11:26;;;;;;;;;;;10.20;99.90;;;;;;4943349;28;19915;-66
2023/12/17 01:13:51;;;;;;;;;;;10.20;99.90;;;;;;4956136;28;20308;-67
2023/12/17 01:16:17;;;;;;;;;;;10.20;99.90;;;;;;4943045;28;19929;-67
2023/12/17 01:18:42;;;;;;;;;;;10.20;99.90;;;;;;4942677;28;19973;-67
2023/12/17 01:21:10;;;;;;;;;;;10.20;99.90;;;;;;4941799;28;20094;-66
2023/12/17 01:23:37;;;;;;;;;;;10.20;99.90;;;;;;4940067;28;19954;-67
2023/12/17 01:26:02;;;;;;;;;;;10.20;99.90;;;;;;4940588;28;19922;-66
2023/12/17 01:28:28;;;;;;;;;;;10.10;99.90;;;;;;4940232;28;19977;-67
2023/12/17 01:30:53;;;;;;;;;;;10.20;99.90;;;;;;4943850;28;19925;-67
2023/12/17 01:33:18;;;;;;;;;;;10.20;99.90;;;;;;4943405;28;19919;-67
2023/12/17 01:35:44;;;;;;;;;;;10.20;99.90;;;;;;4942403;28;20589;-66
2023/12/17 01:38:09;;;;;;;;;;;10.20;99.90;;;;;;4940142;28;19954;-66
2023/12/17 01:40:39;;;;;;;;;;;10.20;99.90;;;;;;4940848;28;19922;-67
2023/12/17 01:43:08;;;;;;;;;;;10.20;99.90;;;;;;4941286;28;19941;-67
2023/12/17 01:45:34;;;;;;;;;;;10.20;99.90;;;;;;4940962;28;19922;-66
2023/12/17 01:47:59;;;;;;;;;;;10.20;99.90;;;;;;4939128;28;22363;-67
2023/12/17 01:50:27;;;;;;;;;;;10.20;99.90;;;;;;4937604;28;19929;-67
2023/12/17 01:52:53;;;;;;;;;;;10.20;99.90;;;;;;4939753;28;20746;-67
2023/12/17 01:55:19;;;;;;;;;;;10.20;99.90;;;;;;4941113;28;19922;-67
2023/12/17 01:57:45;;;;;;;;;;;10.20;99.90;;;;;;4942321;28;19945;-67
2023/12/17 02:00:11;;;;;;;;;;;10.20;99.90;;;;;;4944595;28;19922;-66
2023/12/17 02:02:41;;;;;;;;;;;10.20;99.90;;;;;;4940204;28;20001;-66
2023/12/17 02:05:07;;;;;;;;;;;10.20;99.90;;;;;;4942276;28;23288;-67
2023/12/17 02:07:32;;;;;;;;;;;10.20;99.90;;;;;;4938124;28;19922;-66
2023/12/17 02:10:00;;;;;;;;;;;10.30;99.90;;;;;;4943490;28;19922;-66
2023/12/17 02:12:26;;;;;;;;;;;10.30;99.90;;;;;;4936941;28;21749;-66
2023/12/17 02:14:52;;;;;;;;;;;10.30;99.90;;;;;;4939690;28;20424;-66
2023/12/17 02:17:23;;;;;;;;;;;10.30;99.90;;;;;;4940612;28;19938;-67
2023/12/17 02:19:51;;;;;;;;;;;10.30;99.90;;;;;;4938827;28;20045;-67
2023/12/17 02:22:16;;;;;;;;;;;10.30;99.90;;;;;;4937160;28;19922;-67
2023/12/17 02:24:42;;;;;;;;;;;10.30;99.90;;;;;;4940938;28;19918;-67
2023/12/17 02:27:07;;;;;;;;;;;10.30;99.90;;;;;;4937459;28;20605;-67
2023/12/17 02:29:33;;;;;;;;;;;10.30;99.90;;;;;;4942981;28;21473;-66
2023/12/17 02:31:58;;;;;;;;;;;10.30;99.90;;;;;;4937850;28;19965;-66
2023/12/17 02:34:26;;;;;;;;;;;10.30;99.90;;;;;;4938576;28;19922;-67
2023/12/17 02:36:51;;;;;;;;;;;10.30;99.90;;;;;;4943042;28;19923;-66
2023/12/17 02:39:17;;;;;;;;;;;10.30;99.90;;;;;;4937355;28;20328;-67
2023/12/17 02:41:42;;;;;;;;;;;10.40;99.90;;;;;;4939687;28;19988;-67
2023/12/17 02:44:10;;;;;;;;;;;10.40;99.90;;;;;;4938306;28;19932;-67
2023/12/17 02:46:35;;;;;;;;;;;10.40;99.90;;;;;;4939650;28;20040;-66
2023/12/17 02:49:01;;;;;;;;;;;10.40;99.90;;;;;;4937681;28;19926;-67
2023/12/17 02:51:26;;;;;;;;;;;10.40;99.90;;;;;;4939229;28;19918;-67
2023/12/17 02:53:52;;;;;;;;;;;10.40;99.90;;;;;;4936695;28;20171;-67
2023/12/17 02:56:17;;;;;;;;;;;10.40;99.90;;;;;;4939651;28;19926;-66
2023/12/17 02:58:43;;;;;;;;;;;10.40;99.90;;;;;;4938420;28;20013;-66
2023/12/17 03:01:08;;;;;;;;;;;10.40;99.90;;;;;;4942006;28;19922;-66
2023/12/17 03:03:34;;;;;;;;;;;10.40;99.90;;;;;;4937935;28;19926;-67
2023/12/17 03:06:00;;;;;;;;;;;10.40;99.90;;;;;;4944124;28;19917;-67
2023/12/17 03:08:28;;;;;;;;;;;10.40;99.90;;;;;;4936164;28;20532;-66
2023/12/17 03:10:53;;;;;;;;;;;10.40;99.90;;;;;;4943609;28;19921;-67
2023/12/17 03:13:18;;;;;;;;;;;10.40;99.90;;;;;;4941787;28;21452;-67
2023/12/17 03:15:44;;;;;;;;;;;10.40;99.90;;;;;;4939403;28;19937;-66
2023/12/17 03:18:11;;;;;;;;;;;10.40;99.90;;;;;;4938044;28;19933;-66
2023/12/17 03:20:39;;;;;;;;;;;10.40;99.90;;;;;;4935114;28;19996;-65
2023/12/17 03:23:05;;;;;;;;;;;10.40;99.90;;;;;;4934592;28;19932;-65
2023/12/17 03:25:30;;;;;;;;;;;10.40;99.90;;;;;;4935965;28;19922;-65
2023/12/17 03:27:56;;;;;;;;;;;10.40;99.90;;;;;;4934651;28;20282;-65
2023/12/17 03:30:24;;;;;;;;;;;10.40;99.90;;;;;;4934862;28;20013;-65
2023/12/17 03:32:54;;;;;;;;;;;10.30;99.90;;;;;;4934642;28;19922;-65
2023/12/17 03:35:19;;;;;;;;;;;10.40;99.90;;;;;;4941982;28;19929;-65
2023/12/17 03:37:45;;;;;;;;;;;10.40;99.90;;;;;;4949758;28;19922;-65
2023/12/17 03:40:11;;;;;;;;;;;10.40;99.90;;;;;;4936571;28;20444;-65
2023/12/17 03:42:36;;;;;;;;;;;10.40;99.90;;;;;;4935042;28;19949;-65
2023/12/17 03:45:02;;;;;;;;;;;10.40;99.90;;;;;;4937362;28;19922;-65
2023/12/17 03:47:27;;;;;;;;;;;10.40;99.90;;;;;;4934972;28;19936;-65
2023/12/17 03:49:53;;;;;;;;;;;10.40;99.90;;;;;;4935695;28;19988;-65
2023/12/17 03:52:21;;;;;;;;;;;10.40;99.90;;;;;;4937323;28;19933;-65
2023/12/17 03:54:46;;;;;;;;;;;10.40;99.90;;;;;;4941255;28;19924;-65
2023/12/17 03:57:14;;;;;;;;;;;10.40;99.90;;;;;;4936693;28;19958;-65
2023/12/17 03:59:42;;;;;;;;;;;10.40;99.90;;;;;;4940024;28;20005;-65
2023/12/17 04:02:12;;;;;;;;;;;10.40;99.90;;;;;;4937970;28;20425;-66
2023/12/17 04:04:37;;;;;;;;;;;10.40;99.90;;;;;;4937470;28;20026;-66
2023/12/17 04:07:03;;;;;;;;;;;10.50;99.90;;;;;;4937023;28;20943;-66
2023/12/17 04:09:28;;;;;;;;;;;10.40;99.90;;;;;;4938904;28;19922;-65
2023/12/17 04:11:54;;;;;;;;;;;10.50;99.90;;;;;;4938379;28;19925;-65
2023/12/17 04:14:19;;;;;;;;;;;10.40;99.90;;;;;;4940810;28;20062;-65
2023/12/17 04:16:47;;;;;;;;;;;10.40;99.90;;;;;;4939090;28;20376;-65
2023/12/17 04:19:12;;;;;;;;;;;10.40;99.90;;;;;;4937828;28;19918;-65
2023/12/17 04:21:41;;;;;;;;;;;10.40;99.90;;;;;;4939591;28;19918;-65
2023/12/17 04:24:06;;;;;;;;;;;10.40;99.90;;;;;;4939100;28;19926;-65
2023/12/17 04:26:32;;;;;;;;;;;10.40;99.90;;;;;;4940860;28;22553;-65
2023/12/17 04:28:59;;;;;;;;;;;10.40;99.90;;;;;;4936697;28;20021;-65
2023/12/17 04:31:25;;;;;;;;;;;10.40;99.90;;;;;;4939460;28;19925;-65
2023/12/17 04:33:50;;;;;;;;;;;10.40;99.90;;;;;;4936671;28;19922;-65
2023/12/17 04:36:18;;;;;;;;;;;10.40;99.90;;;;;;4941456;28;20170;-65
2023/12/17 04:38:46;;;;;;;;;;;10.40;99.90;;;;;;4937838;28;20363;-65
2023/12/17 04:41:12;;;;;;;;;;;10.40;99.90;;;;;;4939740;28;20557;-65
2023/12/17 04:43:40;;;;;;;;;;;10.40;99.90;;;;;;4937407;28;19936;-65
2023/12/17 04:46:08;;;;;;;;;;;10.40;99.90;;;;;;4938706;28;19961;-65
2023/12/17 04:48:34;;;;;;;;;;;10.40;99.90;;;;;;4941882;28;20132;-65
2023/12/17 04:51:02;;;;;;;;;;;10.40;99.90;;;;;;4940233;28;19919;-65
2023/12/17 04:53:27;;;;;;;;;;;10.40;99.90;;;;;;4937140;28;19919;-65
2023/12/17 04:55:53;;;;;;;;;;;10.40;99.90;;;;;;4938609;28;19922;-65
2023/12/17 04:58:18;;;;;;;;;;;10.40;99.90;;;;;;4936668;28;19922;-65
2023/12/17 05:00:46;;;;;;;;;;;10.40;99.90;;;;;;4938981;28;19964;-65
2023/12/17 05:03:14;;;;;;;;;;;10.40;99.90;;;;;;4935513;28;19926;-65
2023/12/17 05:05:40;;;;;;;;;;;10.40;99.90;;;;;;4939482;28;19922;-66
2023/12/17 05:08:05;;;;;;;;;;;10.40;99.90;;;;;;4936400;28;19980;-66
2023/12/17 05:10:31;;;;;;;;;;;10.40;99.90;;;;;;4939212;28;19957;-65
2023/12/17 05:12:58;;;;;;;;;;;10.40;99.90;;;;;;4937129;28;19993;-65
2023/12/17 05:15:24;;;;;;;;;;;10.40;99.90;;;;;;4940468;28;19926;-65
2023/12/17 05:17:49;;;;;;;;;;;10.40;99.90;;;;;;4936154;28;19922;-65
2023/12/17 05:20:17;;;;;;;;;;;10.40;99.90;;;;;;4939237;28;20280;-65
2023/12/17 05:22:45;;;;;;;;;;;10.40;99.90;;;;;;4935997;28;21062;-65
2023/12/17 05:25:10;;;;;;;;;;;10.40;99.90;;;;;;4938515;28;19929;-65
2023/12/17 05:27:36;;;;;;;;;;;10.40;99.90;;;;;;4939550;28;20444;-65
2023/12/17 05:30:04;;;;;;;;;;;10.40;99.90;;;;;;4937667;28;19922;-65
2023/12/17 05:32:30;;;;;;;;;;;10.40;99.90;;;;;;4936353;28;20009;-65
2023/12/17 05:34:55;;;;;;;;;;;10.30;99.90;;;;;;4937500;28;20037;-65
2023/12/17 05:37:21;;;;;;;;;;;10.40;99.90;;;;;;4936582;28;20581;-65
2023/12/17 05:39:46;;;;;;;;;;;10.40;99.90;;;;;;4938312;28;19919;-66
2023/12/17 05:42:14;;;;;;;;;;;10.40;99.90;;;;;;4936677;28;20306;-66
2023/12/17 05:44:40;;;;;;;;;;;10.40;99.90;;;;;;4937664;28;19958;-66
2023/12/17 05:47:05;;;;;;;;;;;10.40;99.90;;;;;;4936125;28;20473;-66
2023/12/17 05:49:38;;;;;;;;;;;10.40;99.90;;;;;;4936635;28;22072;-66
2023/12/17 05:52:04;;;;;;;;;;;10.40;99.90;;;;;;4938596;28;19926;-65
2023/12/17 05:54:30;;;;;;;;;;;10.40;99.90;;;;;;4937372;28;19973;-65
2023/12/17 05:56:55;;;;;;;;;;;10.40;99.90;;;;;;4938790;28;19918;-65
2023/12/17 05:59:21;;;;;;;;;;;10.40;99.90;;;;;;4934847;28;20013;-66
2023/12/17 06:01:46;;;;;;;;;;;10.40;99.90;;;;;;4937712;28;20002;-65
2023/12/17 06:04:14;;;;;;;;;;;10.40;99.90;;;;;;4936133;28;19930;-66
2023/12/17 06:06:41;;;;;;;;;;;10.40;99.90;;;;;;4937134;28;20403;-65
2023/12/17 06:09:10;;;;;;;;;;;10.40;99.90;;;;;;4933515;28;19965;-65
2023/12/17 06:11:35;;;;;;;;;;;10.40;99.90;;;;;;4940285;28;19929;-66
2023/12/17 06:14:02;;;;;;;;;;;10.40;99.90;;;;;;4934607;28;19922;-66
2023/12/17 06:16:28;;;;;;;;;;;10.40;99.90;;;;;;4936157;28;20012;-66
2023/12/17 06:18:55;;;;;;;;;;;10.40;99.90;;;;;;4936371;28;20416;-66
2023/12/17 06:21:25;;;;;;;;;;;10.40;99.90;;;;;;4937316;28;19922;-67
2023/12/17 06:24:02;;;;;;;;;;;10.40;99.90;;;;;;4935235;28;19922;-66
2023/12/17 06:26:27;;;;;;;;;;;10.40;99.90;;;;;;4936216;28;19945;-65
2023/12/17 06:28:53;;;;;;;;;;;10.40;99.90;;;;;;4935308;28;19930;-65
2023/12/17 06:31:19;;;;;;;;;;;10.40;99.90;;;;;;4938351;28;19922;-65
2023/12/17 06:33:44;;;;;;;;;;;10.40;99.90;;;;;;4934817;28;19922;-66
2023/12/17 06:36:12;;;;;;;;;;;10.40;99.90;;;;;;4936999;28;19921;-66
2023/12/17 06:38:38;;;;;;;;;;;10.40;99.90;;;;;;4934954;28;19919;-66
2023/12/17 06:41:07;;;;;;;;;;;10.40;99.90;;;;;;4936115;28;20608;-65
2023/12/17 06:43:32;;;;;;;;;;;10.40;99.90;;;;;;4935089;28;20282;-65
2023/12/17 06:45:58;;;;;;;;;;;10.50;99.90;;;;;;4936522;28;20666;-65
2023/12/17 06:48:24;;;;;;;;;;;10.40;99.90;;;;;;4994303;23;19930;-65
2023/12/17 06:50:52;;;;;;;;;;;10.40;99.90;;;;;;4985257;28;19922;-65
2023/12/17 06:53:17;;;;;;;;;;;10.40;99.90;;;;;;4960158;28;19926;-65
2023/12/17 06:55:43;;;;;;;;;;;10.40;99.90;;;;;;4966235;28;20574;-65
2023/12/17 06:58:10;;;;;;;;;;;10.40;99.90;;;;;;4956522;28;20033;-66
2023/12/17 07:00:38;;;;;;;;;;;10.40;99.90;;;;;;4952405;28;19922;-66
2023/12/17 07:03:03;;;;;;;;;;;10.40;99.90;;;;;;4953257;28;20287;-65
2023/12/17 07:05:29;;;;;;;;;;;10.40;99.90;;;;;;4953833;28;19932;-65
2023/12/17 07:07:54;;;;;;;;;;;10.40;99.90;;;;;;4958363;28;20324;-67
2023/12/17 07:10:20;;;;;;;;;;;10.40;99.90;;;;;;4952700;28;19948;-67
2023/12/17 07:12:48;;;;;;;;;;;10.40;99.90;;;;;;4953310;28;19923;-65
2023/12/17 07:15:16;;;;;;;;;;;10.40;99.90;;;;;;4965438;28;19929;-65
2023/12/17 07:17:43;;;;;;;;;;;10.40;99.90;;;;;;4954427;28;20026;-65
2023/12/17 07:20:09;;;;;;;;;;;10.30;99.90;;;;;;4949867;28;20418;-66
2023/12/17 07:22:35;;;;;;;;;;;10.30;99.90;;;;;;4951518;28;19921;-66
2023/12/17 07:25:00;;;;;;;;;;;10.30;99.90;;;;;;4952145;28;20105;-66
2023/12/17 07:27:27;;;;;;;;;;;10.30;99.90;;;;;;4958039;28;19922;-66
2023/12/17 07:29:54;;;;;;;;;;;10.40;99.90;;;;;;4954045;28;19945;-66
2023/12/17 07:32:20;;;;;;;;;;;10.30;99.90;;;;;;4956771;28;19944;-66
2023/12/17 07:34:45;;;;;;;;;;;10.30;99.90;;;;;;4956083;28;20368;-67
2023/12/17 07:37:11;;;;;;;;;;;10.40;99.90;;;;;;4957114;28;19914;-68
2023/12/17 07:39:39;;;;;;;;;;;10.40;99.90;;;;;;4955029;28;19932;-66
2023/12/17 07:42:05;;;;;;;;;;;10.30;99.90;;;;;;4956233;28;19921;-66
2023/12/17 07:44:30;;;;;;;;;;;10.40;99.90;;;;;;4957789;28;19918;-66
2023/12/17 07:46:58;;;;;;;;;;;10.30;99.90;;;;;;4957220;28;19922;-66
2023/12/17 07:49:24;;;;;;;;;;;10.30;99.90;;;;;;4957183;28;20175;-66
2023/12/17 07:51:52;;;;;;;;;;;10.40;99.90;;;;;;4955871;28;20320;-66
2023/12/17 07:54:18;;;;;;;;;;;10.30;99.90;;;;;;4955856;28;19922;-66
2023/12/17 07:56:46;;;;;;;;;;;10.30;99.90;;;;;;4955728;28;20455;-66
2023/12/17 07:59:11;;;;;;;;;;;10.40;99.90;;;;;;4956039;28;20380;-67
2023/12/17 08:01:39;;;;;;;;;;;10.30;99.90;;;;;;4954869;28;19925;-68
2023/12/17 08:04:09;;;;;;;;;;;10.30;99.90;;;;;;4957107;28;20037;-68
2023/12/17 08:06:37;;;;;;;;;;;10.30;99.90;;;;;;4958835;28;20020;-68
2023/12/17 08:09:02;;;;;;;;;;;10.30;99.90;;;;;;4957074;28;20478;-67
2023/12/17 08:11:30;;;;;;;;;;;10.30;99.90;;;;;;4955110;28;19968;-67
2023/12/17 08:13:56;;;;;;;;;;;10.30;99.90;;;;;;4956017;28;20470;-67
2023/12/17 08:16:21;;;;;;;;;;;10.30;99.90;;;;;;4953558;28;19941;-67
2023/12/17 08:18:47;;;;;;;;;;;10.30;99.90;;;;;;4957060;28;20551;-67
2023/12/17 08:21:12;;;;;;;;;;;10.30;99.90;;;;;;4955077;28;19926;-65
2023/12/17 08:23:40;;;;;;;;;;;10.20;99.90;;;;;;4956529;28;20475;-69
2023/12/17 08:26:08;;;;;;;;;;;10.20;99.90;;;;;;4953785;28;19921;-65
2023/12/17 08:28:35;;;;;;;;;;;10.20;99.90;;;;;;4957528;28;19918;-65
2023/12/17 08:31:01;;;;;;;;;;;10.30;99.90;;;;;;4955394;28;20092;-65
2023/12/17 08:33:26;;;;;;;;;;;10.40;99.90;;;;;;4958312;28;20060;-65
2023/12/17 08:35:54;;;;;;;;;;;10.40;99.90;;;;;;4956188;28;20165;-65
2023/12/17 08:38:19;;;;;;;;;;;10.30;99.90;;;;;;4956248;28;19986;-66
2023/12/17 08:40:47;;;;;;;;;;;10.30;99.90;;;;;;4957705;28;20332;-66
2023/12/17 08:43:13;;;;;;;;;;;10.30;99.90;;;;;;4957195;28;20105;-65
2023/12/17 08:45:41;;;;;;;;;;;10.30;99.90;;;;;;4955517;28;19930;-65
2023/12/17 08:48:06;;;;;;;;;;;10.30;99.90;;;;;;4960392;28;19936;-68
2023/12/17 08:50:32;;;;;;;;;;;10.30;99.90;;;;;;4955483;28;20486;-66
2023/12/17 08:52:57;;;;;;;;;;;10.30;99.90;;;;;;4956828;28;19929;-65
2023/12/17 08:55:23;;;;;;;;;;;10.30;99.90;;;;;;4955200;28;20321;-66
2023/12/17 08:57:51;;;;;;;;;;;10.30;99.90;;;;;;4969663;28;19929;-65
2023/12/17 09:00:17;;;;;;;;;;;10.30;99.90;;;;;;4954059;28;19922;-65
2023/12/17 09:02:44;;;;;;;;;;;10.30;99.90;;;;;;4956062;28;20000;-68
2023/12/17 09:05:10;;;;;;;;;;;10.30;99.90;;;;;;4956686;28;19926;-66
2023/12/17 09:07:36;;;;;;;;;;;10.30;99.90;;;;;;4954285;28;19921;-65
2023/12/17 09:10:02;;;;;;;;;;;10.30;99.90;;;;;;4955058;28;19967;-65
2023/12/17 09:12:28;;;;;;;;;;;10.30;99.90;;;;;;4955560;28;20044;-65
2023/12/17 09:14:56;;;;;;;;;;;10.30;99.90;;;;;;4954213;28;19922;-65
2023/12/17 09:17:21;;;;;;;;;;;10.40;99.90;;;;;;4957569;28;19921;-66
2023/12/17 09:19:49;;;;;;;;;;;10.40;99.90;;;;;;4954952;28;20020;-66
2023/12/17 09:22:15;;;;;;;;;;;10.40;99.90;;;;;;4953786;28;20008;-66
2023/12/17 09:24:40;;;;;;;;;;;10.40;99.90;;;;;;4953659;28;19926;-66
2023/12/17 09:27:11;;;;;;;;;;;10.40;99.90;;;;;;4955813;28;20008;-65
2023/12/17 09:29:37;;;;;;;;;;;10.40;99.90;;;;;;4951376;28;20014;-66
2023/12/17 09:32:04;;;;;;;;;;;10.40;99.90;;;;;;4954098;28;19932;-66
2023/12/17 09:34:30;;;;;;;;;;;10.40;99.90;;;;;;4958218;28;19922;-66
2023/12/17 09:36:56;;;;;;;;;;;10.50;99.90;;;;;;4967553;28;20272;-66
2023/12/17 09:39:21;;;;;;;;;;;10.50;99.90;;;;;;4954143;28;20021;-65
2023/12/17 09:41:47;;;;;;;;;;;10.50;99.90;;;;;;4953875;28;20173;-66
2023/12/17 09:44:13;;;;;;;;;;;10.60;99.90;;;;;;4955612;28;20395;-67
2023/12/17 09:46:38;;;;;;;;;;;10.60;99.90;;;;;;4953140;28;19983;-66
2023/12/17 09:49:06;;;;;;;;;;;10.50;99.90;;;;;;4954500;28;20446;-65
2023/12/17 09:51:36;;;;;;;;;;;10.50;99.90;;;;;;4952872;28;20759;-65
2023/12/17 09:54:01;;;;;;;;;;;10.60;99.90;;;;;;4958426;28;19918;-66
2023/12/17 09:56:27;;;;;;;;;;;10.60;99.90;;;;;;4953865;28;20016;-65
2023/12/17 09:58:52;;;;;;;;;;;10.60;99.90;;;;;;4954141;28;19926;-65
2023/12/17 10:01:18;;;;;;;;;;;10.60;99.90;;;;;;4956705;28;19922;-66
2023/12/17 10:03:44;;;;;;;;;;;10.60;99.90;;;;;;4956680;28;19933;-66
2023/12/17 10:06:10;;;;;;;;;;;10.60;99.90;;;;;;4953555;28;19922;-66
2023/12/17 10:08:35;;;;;;;;;;;10.60;99.90;;;;;;4955312;28;20285;-65
2023/12/17 10:11:03;;;;;;;;;;;10.60;99.90;;;;;;4954547;28;19922;-65
2023/12/17 10:13:29;;;;;;;;;;;10.60;99.90;;;;;;4957239;28;19918;-65
2023/12/17 10:15:54;;;;;;;;;;;10.60;99.90;;;;;;4955395;28;19976;-65
2023/12/17 10:18:21;;;;;;;;;;;10.70;99.90;;;;;;4953142;28;19973;-65
2023/12/17 10:20:47;;;;;;;;;;;10.60;99.90;;;;;;4953534;28;19922;-65
2023/12/17 10:23:15;;;;;;;;;;;10.70;99.90;;;;;;4955940;28;20483;-65
2023/12/17 10:25:40;;;;;;;;;;;10.70;99.90;;;;;;4952645;28;20617;-66
2023/12/17 10:28:08;;;;;;;;;;;10.70;99.90;;;;;;4955073;28;19964;-65
2023/12/17 10:30:34;;;;;;;;;;;10.80;99.90;;;;;;4955671;28;19922;-65
2023/12/17 10:33:05;;;;;;;;;;;10.80;99.90;;;;;;4958553;28;19914;-66
2023/12/17 10:35:31;;;;;;;;;;;10.80;99.90;;;;;;4986878;28;20041;-66
2023/12/17 10:37:59;;;;;;;;;;;10.80;99.90;;;;;;4982974;28;20018;-66
2023/12/17 10:40:25;;;;;;;;;;;10.90;99.90;;;;;;4983068;28;20008;-66
2023/12/17 10:42:53;;;;;;;;;;;11.00;99.90;;;;;;4981818;28;20040;-66
2023/12/17 10:45:19;;;;;;;;;;;11.00;99.90;;;;;;4987829;28;19956;-66
2023/12/17 10:47:46;;;;;;;;;;;11.00;99.90;;;;;;4983528;28;19996;-66
2023/12/17 10:50:11;;;;;;;;;;;11.10;99.90;;;;;;4958223;28;19921;-66
2023/12/17 10:52:38;;;;;;;;;;;11.10;99.90;;;;;;4956174;28;19922;-66
2023/12/17 10:55:03;;;;;;;;;;;11.10;99.90;;;;;;4950581;28;20102;-66
2023/12/17 10:57:29;;;;;;;;;;;11.10;99.90;;;;;;4955436;28;20015;-66
2023/12/17 10:59:56;;;;;;;;;;;11.10;99.90;;;;;;4952750;28;20085;-66
2023/12/17 11:02:22;;;;;;;;;;;11.20;99.90;;;;;;4958361;28;20503;-66
2023/12/17 11:04:48;;;;;;;;;;;11.20;99.90;;;;;;4952963;28;19937;-66
2023/12/17 11:07:18;;;;;;;;;;;11.20;99.90;;;;;;4955513;28;19922;-66
2023/12/17 11:09:44;;;;;;;;;;;11.10;99.90;;;;;;4954137;28;20387;-66
2023/12/17 11:12:13;;;;;;;;;;;11.20;99.90;;;;;;4955730;28;20167;-66
2023/12/17 11:14:42;;;;;;;;;;;11.20;99.90;;;;;;4952001;28;19929;-67
2023/12/17 11:17:12;;;;;;;;;;;11.20;99.90;;;;;;4956576;28;20252;-66
2023/12/17 11:19:59;;;;;;;;;;;11.20;99.90;;;;;;4954452;28;19930;-70
2023/12/17 11:22:27;;;;;;;;;;;11.30;99.90;;;;;;4953735;28;19921;-70
2023/12/17 11:24:56;;;;;;;;;;;11.30;99.90;;;;;;4953602;28;20411;-70
2023/12/17 11:27:26;;;;;;;;;;;11.30;99.90;;;;;;4955997;28;19925;-70
2023/12/17 11:29:52;;;;;;;;;;;11.30;99.90;;;;;;4950929;28;19991;-70
2023/12/17 11:32:21;;;;;;;;;;;11.30;99.90;;;;;;4968034;28;20296;-71
2023/12/17 11:34:50;;;;;;;;;;;11.30;99.90;;;;;;4953497;28;19918;-71
2023/12/17 11:37:18;;;;;;;;;;;11.30;99.90;;;;;;4959901;28;19969;-71
2023/12/17 11:39:45;;;;;;;;;;;11.40;99.90;;;;;;4957938;28;19922;-70
2023/12/17 11:42:10;;;;;;;;;;;11.40;99.90;;;;;;4961795;28;19914;-70
2023/12/17 11:44:41;;;;;;;;;;;11.40;99.90;;;;;;4956325;28;20012;-70
2023/12/17 11:47:09;;;;;;;;;;;11.40;99.90;;;;;;4958053;28;19953;-70
2023/12/17 11:49:34;;;;;;;;;;;11.30;99.90;;;;;;4956153;28;20400;-70
2023/12/17 11:52:09;;;;;;;;;;;11.30;99.90;;;;;;4955286;28;19914;-70
2023/12/17 11:54:35;;;;;;;;;;;11.40;99.90;;;;;;4955376;28;19929;-71
2023/12/17 11:57:01;;;;;;;;;;;11.40;99.90;;;;;;4957227;28;19922;-70
2023/12/17 11:59:35;;;;;;;;;;;11.30;99.90;;;;;;4953506;28;20016;-70
2023/12/17 12:02:02;;;;;;;;;;;11.40;99.90;;;;;;4957504;28;20357;-71
2023/12/17 12:04:37;;;;;;;;;;;11.40;99.90;;;;;;4955542;28;19980;-70
2023/12/17 12:07:02;;;;;;;;;;;11.30;99.90;;;;;;4958376;28;20012;-70
2023/12/17 12:09:30;;;;;;;;;;;11.30;99.90;;;;;;4957702;28;19922;-70
2023/12/17 12:11:55;;;;;;;;;;;11.30;99.90;;;;;;4961589;28;19922;-71
2023/12/17 12:14:23;;;;;;;;;;;11.40;99.90;;;;;;4961629;28;19921;-71
2023/12/17 12:16:49;;;;;;;;;;;11.40;99.90;;;;;;4959871;28;20626;-71
2023/12/17 12:19:14;;;;;;;;;;;11.40;99.90;;;;;;4961783;28;19929;-66
2023/12/17 12:21:40;;;;;;;;;;;11.40;99.90;;;;;;4961532;28;19932;-69
2023/12/17 12:24:09;;;;;;;;;;;11.40;99.90;;;;;;4958257;28;20295;-69
2023/12/17 12:26:35;;;;;;;;;;;11.50;99.90;;;;;;4953285;28;19925;-68
2023/12/17 12:29:02;;;;;;;;;;;11.50;99.90;;;;;;4955832;28;19922;-68
2023/12/17 12:31:28;;;;;;;;;;;11.50;99.90;;;;;;4955592;28;19922;-68
2023/12/17 12:34:00;;;;;;;;;;;11.50;99.90;;;;;;4958817;28;20001;-68
2023/12/17 12:36:26;;;;;;;;;;;11.50;99.90;;;;;;4953288;28;19976;-68
2023/12/17 12:38:59;;;;;;;;;;;11.50;99.90;;;;;;4957937;28;19977;-68
2023/12/17 12:41:24;;;;;;;;;;;11.40;99.90;;;;;;4951856;28;20659;-65
2023/12/17 12:43:52;;;;;;;;;;;11.40;99.90;;;;;;4959164;28;20001;-67
2023/12/17 12:46:18;;;;;;;;;;;11.40;99.90;;;;;;4955526;28;19922;-67
2023/12/17 12:48:43;;;;;;;;;;;11.50;99.90;;;;;;5002765;23;20355;-70
2023/12/17 12:51:10;;;;;;;;;;;11.50;99.90;;;;;;4980287;28;19925;-70
2023/12/17 12:53:38;;;;;;;;;;;11.40;99.90;;;;;;4965467;28;19918;-70
2023/12/17 12:56:06;;;;;;;;;;;11.30;99.90;;;;;;4962437;28;20356;-70
2023/12/17 12:58:34;;;;;;;;;;;11.30;99.90;;;;;;4943458;28;19930;-70
2023/12/17 13:01:01;;;;;;;;;;;11.30;99.90;;;;;;4961572;28;20361;-70
2023/12/17 13:03:29;;;;;;;;;;;11.30;99.90;;;;;;4959949;28;19925;-67
2023/12/17 13:05:57;;;;;;;;;;;11.40;99.90;;;;;;4961492;28;19969;-67
2023/12/17 13:08:25;;;;;;;;;;;11.40;99.90;;;;;;4959084;28;19967;-67
2023/12/17 13:10:52;;;;;;;;;;;11.40;99.90;;;;;;4960093;28;21781;-67
2023/12/17 13:13:20;;;;;;;;;;;11.30;99.90;;;;;;4959552;28;19921;-67
2023/12/17 13:15:46;;;;;;;;;;;11.30;99.90;;;;;;4960120;28;19932;-67
2023/12/17 13:18:11;;;;;;;;;;;11.30;99.90;;;;;;4958894;28;19989;-67
2023/12/17 13:20:37;;;;;;;;;;;11.30;99.90;;;;;;4960649;28;19925;-67
2023/12/17 13:23:03;;;;;;;;;;;11.30;99.90;;;;;;4959100;28;20319;-67
2023/12/17 13:25:30;;;;;;;;;;;11.30;99.90;;;;;;4960856;28;20005;-68
2023/12/17 13:28:01;;;;;;;;;;;11.30;99.90;;;;;;4959058;28;19921;-68
2023/12/17 13:30:27;;;;;;;;;;;11.20;99.90;;;;;;4960855;28;19979;-67
2023/12/17 13:33:00;;;;;;;;;;;11.30;99.90;;;;;;4960781;28;20496;-67
2023/12/17 13:35:26;;;;;;;;;;;11.20;99.90;;;;;;4959690;28;20064;-67
2023/12/17 13:37:51;;;;;;;;;;;11.20;99.90;;;;;;4958117;28;22060;-68
2023/12/17 13:40:19;;;;;;;;;;;11.30;99.90;;;;;;4961742;28;19957;-68
2023/12/17 13:42:45;;;;;;;;;;;11.20;99.90;;;;;;4959034;28;20028;-67
2023/12/17 13:45:11;;;;;;;;;;;11.20;99.90;;;;;;4959893;28;20424;-67
2023/12/17 13:47:36;;;;;;;;;;;11.20;99.90;;;;;;4960940;28;19926;-68
2023/12/17 13:50:04;;;;;;;;;;;11.20;99.90;;;;;;4959401;28;19929;-67
2023/12/17 13:52:30;;;;;;;;;;;11.30;99.90;;;;;;4959785;28;19922;-67
2023/12/17 13:54:55;;;;;;;;;;;11.30;99.90;;;;;;4960108;28;19921;-68
2023/12/17 13:57:21;;;;;;;;;;;11.20;99.90;;;;;;4959865;28;20535;-67
2023/12/17 13:59:49;;;;;;;;;;;11.20;99.90;;;;;;4958132;28;20028;-67
2023/12/17 14:02:15;;;;;;;;;;;11.10;99.90;;;;;;4960270;28;20037;-67
2023/12/17 14:04:44;;;;;;;;;;;11.10;99.90;;;;;;4958455;28;20016;-67
2023/12/17 14:07:11;;;;;;;;;;;11.10;99.90;;;;;;4958230;28;20613;-68
2023/12/17 14:09:38;;;;;;;;;;;11.10;99.90;;;;;;4958401;28;19969;-67
2023/12/17 14:12:04;;;;;;;;;;;11.10;99.90;;;;;;4959476;28;20299;-68